createdAt,value
2019-04-30T00:00:09.888Z,42
2019-04-30T00:05:14.473Z,46
2019-04-30T00:10:15.453Z,55
2019-04-30T00:15:19.374Z,54
2019-04-30T00:20:19.813Z,61
2019-04-30T00:25:24.784Z,46
2019-04-30T00:30:25.196Z,36
2019-04-30T00:35:27.289Z,25
2019-04-30T00:40:30.183Z,20
2019-04-30T00:45:32.063Z,17
2019-04-30T00:50:37.165Z,16
2019-04-30T01:00:39.452Z,21
2019-04-30T01:05:44.403Z,21
2019-04-30T01:10:45.971Z,19
2019-04-30T01:15:48.875Z,18
2019-04-30T01:20:49.208Z,19
2019-04-30T01:25:52.045Z,23
2019-04-30T01:30:58.607Z,27
2019-04-30T01:35:56.598Z,28
2019-04-30T01:40:59.568Z,30
2019-04-30T01:46:08.324Z,36
2019-04-30T01:51:03.951Z,40
2019-04-30T01:56:06.680Z,44
2019-04-30T02:01:09.102Z,39
2019-04-30T02:06:11.518Z,46
2019-04-30T02:11:13.782Z,40
2019-04-30T02:16:16.226Z,40
2019-04-30T02:21:19.418Z,40
2019-04-30T02:26:21.581Z,31
2019-04-30T02:31:23.819Z,24
2019-04-30T02:36:26.319Z,27
2019-04-30T02:41:29.253Z,19
2019-04-30T02:46:32.232Z,21
2019-04-30T02:51:33.509Z,17
2019-04-30T02:56:35.981Z,16
2019-04-30T03:01:40.178Z,14
2019-04-30T03:06:40.885Z,13
2019-04-30T03:11:43.656Z,13
2019-04-30T03:16:45.813Z,13
2019-04-30T03:21:50.181Z,14
2019-04-30T03:26:50.827Z,15
2019-04-30T03:31:53.252Z,12
2019-04-30T03:36:55.789Z,11
2019-04-30T03:41:59.631Z,13
2019-04-30T03:47:00.587Z,17
2019-04-30T03:52:03.080Z,15
2019-04-30T03:57:05.593Z,13
2019-04-30T04:02:09.395Z,20
2019-04-30T04:07:10.407Z,18
2019-04-30T04:12:13.087Z,19
2019-04-30T04:17:15.391Z,19
2019-04-30T04:22:20.286Z,18
2019-04-30T04:27:20.415Z,21
2019-04-30T04:32:24.173Z,21
2019-04-30T04:37:25.569Z,30
2019-04-30T04:42:29.909Z,22
2019-04-30T04:47:30.967Z,24
2019-04-30T04:52:32.861Z,28
2019-04-30T04:57:35.164Z,25
2019-04-30T05:02:39.610Z,24
2019-04-30T05:07:40.179Z,26
2019-04-30T05:12:42.439Z,21
2019-04-30T05:17:45.175Z,20
2019-04-30T05:22:48.842Z,18
2019-04-30T05:27:49.863Z,17
2019-04-30T05:32:52.268Z,16
2019-04-30T05:37:54.726Z,14
2019-04-30T05:42:57.470Z,14
2019-04-30T05:47:59.720Z,16
2019-04-30T05:53:02.278Z,16
2019-04-30T05:58:04.566Z,17
2019-04-30T06:03:09.234Z,15
2019-04-30T06:08:09.523Z,14
2019-04-30T06:13:12.266Z,16
2019-04-30T06:18:14.399Z,13
2019-04-30T06:23:16.846Z,19
2019-04-30T06:28:19.629Z,17
2019-04-30T06:33:21.819Z,17
2019-04-30T06:38:24.211Z,14
2019-04-30T06:43:28.577Z,16
2019-04-30T06:48:29.485Z,13
2019-04-30T06:53:31.597Z,14
2019-04-30T06:58:34.028Z,12
2019-04-30T07:03:36.593Z,11
2019-04-30T07:08:42.575Z,10
2019-04-30T07:13:41.768Z,10
2019-04-30T07:18:44.063Z,10
2019-04-30T07:23:46.353Z,10
2019-04-30T07:28:54.211Z,11
2019-04-30T07:38:56.564Z,9
2019-04-30T07:43:56.411Z,11
2019-04-30T07:48:59.912Z,8
2019-04-30T07:54:01.069Z,8
2019-04-30T07:59:03.679Z,8
2019-04-30T08:04:06.020Z,7
2019-04-30T08:09:10.266Z,7
2019-04-30T08:14:11.050Z,8
2019-04-30T08:19:13.377Z,8
2019-04-30T08:24:15.845Z,8
2019-04-30T08:29:19.475Z,7
2019-04-30T08:39:23.265Z,8
2019-04-30T08:44:25.797Z,8
2019-04-30T08:49:30.364Z,9
2019-04-30T08:54:30.614Z,8
2019-04-30T08:59:33.070Z,9
2019-04-30T09:04:35.686Z,9
2019-04-30T09:09:38.948Z,11
2019-04-30T09:14:40.739Z,10
2019-04-30T09:19:42.961Z,13
2019-04-30T09:24:45.483Z,8
2019-04-30T09:29:49.151Z,8
2019-04-30T09:34:50.370Z,8
2019-04-30T09:39:52.942Z,7
2019-04-30T09:44:57.212Z,8
2019-04-30T09:49:59.580Z,7
2019-04-30T09:55:00.624Z,7
2019-04-30T10:00:02.640Z,7
2019-04-30T10:05:05.497Z,7
2019-04-30T10:10:09.450Z,7
2019-04-30T10:15:09.996Z,6
2019-04-30T10:20:12.551Z,6
2019-04-30T10:25:14.929Z,7
2019-04-30T10:30:19.099Z,7
2019-04-30T10:35:20.350Z,7
2019-04-30T10:40:22.552Z,7
2019-04-30T10:45:25.081Z,7
2019-04-30T10:50:27.185Z,6
2019-04-30T10:55:31.104Z,8
2019-04-30T11:00:32.156Z,7
2019-04-30T11:05:34.627Z,7
2019-04-30T11:10:37.050Z,8
2019-04-30T11:15:39.850Z,6
2019-04-30T11:20:42.465Z,7
2019-04-30T11:25:45.529Z,7
2019-04-30T11:30:47.186Z,8
2019-04-30T11:36:01.654Z,7
2019-04-30T11:40:51.849Z,8
2019-04-30T11:45:54.531Z,8
2019-04-30T11:50:56.731Z,8
2019-04-30T11:55:59.600Z,7
2019-04-30T12:01:01.888Z,11
2019-04-30T12:06:04.543Z,8
2019-04-30T12:11:06.629Z,7
2019-04-30T12:16:09.122Z,9
2019-04-30T12:21:11.509Z,6
2019-04-30T12:26:14.112Z,8
2019-04-30T12:31:16.415Z,9
2019-04-30T12:36:18.974Z,9
2019-04-30T12:41:21.355Z,10
2019-04-30T12:46:23.817Z,9
2019-04-30T12:51:26.495Z,8
2019-04-30T12:56:29.765Z,9
2019-04-30T13:01:32.149Z,9
2019-04-30T13:06:34.230Z,10
2019-04-30T13:11:36.374Z,7
2019-04-30T13:16:39.278Z,9
2019-04-30T13:21:41.006Z,11
2019-04-30T13:26:43.447Z,10
2019-04-30T13:31:46.090Z,10
2019-04-30T13:36:49.336Z,10
2019-04-30T13:41:51.174Z,10
2019-04-30T13:46:53.354Z,9
2019-04-30T13:51:56.102Z,9
2019-04-30T13:56:59.110Z,11
2019-04-30T14:02:00.730Z,8
2019-04-30T14:07:03.250Z,9
2019-04-30T14:12:05.711Z,10
2019-04-30T14:17:09.292Z,9
2019-04-30T14:22:10.482Z,10
2019-04-30T14:27:12.998Z,11
2019-04-30T14:32:15.443Z,8
2019-04-30T14:37:17.921Z,10
2019-04-30T14:42:21.170Z,8
2019-04-30T14:47:23.927Z,9
2019-04-30T14:52:25.260Z,9
2019-04-30T14:57:27.710Z,13
2019-04-30T15:02:30.180Z,10
2019-04-30T15:07:32.647Z,8
2019-04-30T15:12:35.079Z,9
2019-04-30T15:17:39.158Z,9
2019-04-30T15:22:40.166Z,9
2019-04-30T15:27:44.826Z,11
2019-04-30T15:32:44.934Z,9
2019-04-30T15:37:48.620Z,8
2019-04-30T15:42:49.966Z,10
2019-04-30T15:47:52.282Z,9
2019-04-30T15:52:54.773Z,8
2019-04-30T15:57:57.523Z,11
2019-04-30T16:03:00.189Z,6
2019-04-30T16:13:04.570Z,7
2019-04-30T16:18:07.130Z,7
2019-04-30T16:23:09.476Z,7
2019-04-30T16:28:12.030Z,8
2019-04-30T16:33:14.423Z,7
2019-04-30T16:38:18.332Z,9
2019-04-30T16:43:20.311Z,14
2019-04-30T16:48:22.406Z,8
2019-04-30T16:53:24.411Z,6
2019-04-30T16:58:26.705Z,6
2019-04-30T17:03:29.168Z,7
2019-04-30T17:08:31.608Z,5
2019-04-30T17:13:34.261Z,7
2019-04-30T17:18:36.691Z,6
2019-04-30T17:23:39.011Z,16
2019-04-30T17:28:41.444Z,7
2019-04-30T17:33:44.002Z,7
2019-04-30T17:38:46.434Z,16
2019-04-30T17:43:49.541Z,17
2019-04-30T17:48:51.726Z,22
2019-04-30T17:53:53.770Z,17
2019-04-30T17:58:56.198Z,18
2019-04-30T18:03:58.862Z,54
2019-04-30T18:09:01.108Z,12
2019-04-30T18:14:03.585Z,10
2019-04-30T18:19:06.500Z,7
2019-04-30T18:24:08.683Z,8
2019-04-30T18:29:11.133Z,8
2019-04-30T18:34:13.459Z,8
2019-04-30T18:39:15.903Z,18
2019-04-30T18:44:19.510Z,71
2019-04-30T18:49:20.769Z,25
2019-04-30T18:54:23.233Z,121
2019-04-30T18:59:25.716Z,60
2019-04-30T19:04:28.785Z,173
2019-04-30T19:09:30.642Z,101
2019-04-30T19:14:33.115Z,202
2019-04-30T19:19:35.586Z,202
2019-04-30T19:24:38.002Z,140
2019-04-30T19:29:40.476Z,115
2019-04-30T19:34:42.896Z,279
2019-04-30T19:39:45.329Z,330
2019-04-30T19:44:56.699Z,387
2019-04-30T19:49:50.724Z,341
2019-04-30T19:54:52.714Z,321
2019-04-30T19:59:55.172Z,420
2019-04-30T20:04:59.010Z,390
2019-04-30T20:10:03.844Z,376
2019-04-30T20:15:02.570Z,333
2019-04-30T20:20:05.365Z,263
2019-04-30T20:25:09.118Z,286
2019-04-30T20:30:09.927Z,274
2019-04-30T20:35:12.412Z,284
2019-04-30T20:40:15.008Z,284
2019-04-30T20:45:18.825Z,311
2019-04-30T20:50:20.091Z,306
2019-04-30T20:55:22.333Z,306
2019-04-30T21:00:24.649Z,303
2019-04-30T21:05:27.228Z,319
2019-04-30T21:10:29.819Z,336
2019-04-30T21:15:32.028Z,353
2019-04-30T21:20:34.851Z,387
2019-04-30T21:25:38.680Z,402
2019-04-30T21:30:39.477Z,385
2019-04-30T21:35:41.908Z,372
2019-04-30T21:40:45.029Z,488
2019-04-30T21:45:46.784Z,335
2019-04-30T21:50:49.846Z,418
2019-04-30T21:55:51.835Z,364
2019-04-30T22:00:54.234Z,337
2019-04-30T22:05:56.692Z,353
2019-04-30T22:11:00.202Z,377
2019-04-30T22:16:01.564Z,373
2019-04-30T22:21:04.040Z,329
2019-04-30T22:26:06.903Z,307
2019-04-30T22:31:08.981Z,357
2019-04-30T22:36:11.448Z,395
2019-04-30T22:41:13.916Z,352
2019-04-30T22:46:16.425Z,314
2019-04-30T22:51:19.175Z,315
2019-04-30T22:56:21.432Z,320
2019-04-30T23:01:23.787Z,325
2019-04-30T23:06:26.278Z,330
2019-04-30T23:11:28.743Z,328
2019-04-30T23:16:31.216Z,322
2019-04-30T23:21:33.962Z,310
2019-04-30T23:26:36.074Z,346
2019-04-30T23:31:38.591Z,327
2019-04-30T23:36:41.146Z,410
2019-04-30T23:41:43.478Z,415
2019-04-30T23:46:45.955Z,386
2019-04-30T23:51:50.489Z,417
2019-04-30T23:56:50.955Z,386
